Hauptseite
METAR-TAF:

METAR-TAF

Flughäfen :

Wilkes-Barre/Scranton International Airport

Wilkes-Barre / Scranton, Pennsylvania, Vereinigte Staaten

Breite: 41-20-20N, Länge: 075-43-36W, Höhe: 293 m

Beobachtung

Neuester Wetterbericht von vor 1 Stunde und 0 Minuten, um 04:54 UTC
Windstille
Temperatur 18°C
Luftfeuchtigkeit 88%
Luftdruck 1008 hPa
Sichtweite: 16.1 km
Himmel klar

METAR: KAVP 040454Z 00000KT 10SM CLR 18/16 A2978 RMK AO2 SLP079 T01780156 402610133

Zeit: 01:54 (05:54 UTC)

Prognose

Neuester Wetterbericht von vor 17 Minuten, um 05:37 UTC
Gültige Prognose vom 04 um 06 UTC bis 05 um 06 UTC
Wind 4 kt aus unterschiedlichen Richtungen
Sichtweite: 10 km
Aufgelockert bewölkt in der Höhe von 10000 ft
Ab 04 um 1600 UTC
Wind 7 kt aus Südwest
Sichtweite: 10 km
Durchbrochene Bewölkung in der Höhe von 20000 ft

TAF: KAVP 040537Z 0406/0506 VRB04KT P6SM SCT100 FM041600 23007KT P6SM BKN200

Wetterbeobachtungen und Prognosen von mehr als 4000 Flughäfen (METAR und TAF Bericht).

Die verfügbaren Stationen werden durch gelbe und rote Markierungen auf der Karte dargestellt.

Führen Sie die Maus auf sie, um den Namen der Station zu sehen.

Darauf klicken, um die Beobachtung von Wetterbeobachtungen und Prognosen zu sehen.

Um die Karte zu ändern : klicken Sie auf den grünen Tasten mit einem schwarzen Kreuz Zum Vergrößern, auf den grünen Button mit einem Gedankenstrich zu verkleinern, oder auf die grünen Pfeile für benachbarte Karten.


METAR-TAF: